createdAt,value
2023-02-06T00:01:31.911Z,7.88
2023-02-06T00:03:59.831Z,7.32
2023-02-06T00:06:27.813Z,6.55
2023-02-06T00:08:55.727Z,7.97
2023-02-06T00:11:24.712Z,6.85
2023-02-06T00:13:52.838Z,8.13
2023-02-06T00:16:23.500Z,8.38
2023-02-06T00:18:54.988Z,9.77
2023-02-06T00:21:25.779Z,12.02
2023-02-06T00:23:55.416Z,12.27
2023-02-06T00:26:24.060Z,11.10
2023-02-06T00:28:52.052Z,12.68
2023-02-06T00:31:20.102Z,11.65
2023-02-06T00:33:48.283Z,11.70
2023-02-06T00:36:17.707Z,11.60
2023-02-06T00:38:45.652Z,10.75
2023-02-06T00:41:13.628Z,11.52
2023-02-06T00:43:43.369Z,11.20
2023-02-06T00:46:11.447Z,10.00
2023-02-06T00:48:39.443Z,11.45
2023-02-06T00:51:07.610Z,10.23
2023-02-06T00:53:36.904Z,8.52
2023-02-06T00:56:05.188Z,10.30
2023-02-06T00:58:33.113Z,10.82
2023-02-06T01:01:01.131Z,10.90
2023-02-06T01:03:29.034Z,10.27
2023-02-06T01:05:56.911Z,12.75
2023-02-06T01:08:24.817Z,10.43
2023-02-06T01:10:54.046Z,10.70
2023-02-06T01:13:22.598Z,10.70
2023-02-06T01:15:51.278Z,10.27
2023-02-06T01:18:19.407Z,9.93
2023-02-06T01:20:47.336Z,10.65
2023-02-06T01:23:15.256Z,11.05
2023-02-06T01:25:43.189Z,10.10
2023-02-06T01:28:12.549Z,9.23
2023-02-06T01:30:40.620Z,10.13
2023-02-06T01:33:08.545Z,8.80
2023-02-06T01:35:36.724Z,10.52
2023-02-06T01:38:04.984Z,9.95
2023-02-06T01:40:33.092Z,9.55
2023-02-06T01:43:02.030Z,9.43
2023-02-06T01:45:40.862Z,10.70
2023-02-06T01:48:14.205Z,11.10
2023-02-06T01:50:44.651Z,9.48
2023-02-06T01:53:15.805Z,10.40
2023-02-06T01:55:45.233Z,10.25
2023-02-06T01:58:21.531Z,10.80
2023-02-06T02:00:51.600Z,10.65
2023-02-06T02:03:19.682Z,10.45
2023-02-06T02:05:49.512Z,9.77
2023-02-06T02:08:21.397Z,8.90
2023-02-06T02:10:49.528Z,9.20
2023-02-06T02:13:17.823Z,10.07
2023-02-06T02:15:56.481Z,8.93
2023-02-06T02:18:38.729Z,8.52
2023-02-06T02:21:43.976Z,10.48
2023-02-06T02:24:19.720Z,8.30
2023-02-06T02:27:10.801Z,8.63
2023-02-06T02:30:12.256Z,8.57
2023-02-06T02:33:02.578Z,8.77
2023-02-06T02:35:40.767Z,10.00
2023-02-06T02:38:21.395Z,8.60
2023-02-06T02:40:55.602Z,8.48
2023-02-06T02:43:34.305Z,7.70
2023-02-06T02:46:09.780Z,8.88
2023-02-06T02:48:41.915Z,8.82
2023-02-06T02:51:12.344Z,9.20
2023-02-06T02:53:40.491Z,8.65
2023-02-06T02:56:16.825Z,8.70
2023-02-06T02:58:46.829Z,8.90
2023-02-06T03:01:20.178Z,8.10
2023-02-06T03:03:49.197Z,7.75
2023-02-06T03:07:07.552Z,7.53
2023-02-06T03:09:46.189Z,8.88
2023-02-06T03:12:20.841Z,9.05
2023-02-06T03:14:56.113Z,7.30
2023-02-06T03:17:31.456Z,15.05
2023-02-06T03:20:01.594Z,8.13
2023-02-06T03:22:33.011Z,7.07
2023-02-06T03:25:02.421Z,12.95
2023-02-06T03:27:32.072Z,12.27
2023-02-06T03:30:02.047Z,8.45
2023-02-06T03:32:33.108Z,8.18
2023-02-06T03:35:04.408Z,8.18
2023-02-06T03:37:35.286Z,7.82
2023-02-06T03:40:04.109Z,8.93
2023-02-06T03:42:33.640Z,9.52
2023-02-06T03:45:12.050Z,9.15
2023-02-06T03:47:40.528Z,8.40
2023-02-06T03:50:11.541Z,8.20
2023-02-06T03:52:45.708Z,10.07
2023-02-06T03:55:17.872Z,7.03
2023-02-06T03:57:49.489Z,10.23
2023-02-06T04:00:17.720Z,8.73
2023-02-06T04:02:48.416Z,8.52
2023-02-06T04:05:16.996Z,8.80
2023-02-06T04:07:46.392Z,11.10
2023-02-06T04:10:14.465Z,8.20
2023-02-06T04:12:42.390Z,9.20
2023-02-06T04:15:10.939Z,9.45
2023-02-06T04:17:53.580Z,9.55
2023-02-06T04:20:25.759Z,9.40
2023-02-06T04:22:55.628Z,7.45
2023-02-06T04:25:23.576Z,8.40
2023-02-06T04:27:52.065Z,7.95
2023-02-06T04:30:20.164Z,7.85
2023-02-06T04:32:48.143Z,9.20
2023-02-06T04:35:16.068Z,7.65
2023-02-06T04:37:44.008Z,7.50
2023-02-06T04:40:14.097Z,7.55
2023-02-06T04:42:42.085Z,7.35
2023-02-06T04:45:10.714Z,7.93
2023-02-06T04:47:38.726Z,8.07
2023-02-06T04:50:07.544Z,7.00
2023-02-06T04:52:35.585Z,7.70
2023-02-06T04:55:03.546Z,8.88
2023-02-06T04:57:33.697Z,8.65
2023-02-06T05:00:01.600Z,8.43
2023-02-06T05:02:29.593Z,8.70
2023-02-06T05:04:57.515Z,11.57
2023-02-06T05:07:25.503Z,10.15
2023-02-06T05:09:53.413Z,7.88
2023-02-06T05:12:21.291Z,9.05
2023-02-06T05:14:50.619Z,10.50
2023-02-06T05:17:18.644Z,8.20
2023-02-06T05:19:46.817Z,8.68
2023-02-06T05:22:14.846Z,7.63
2023-02-06T05:24:42.847Z,9.05
2023-02-06T05:27:10.924Z,9.10
2023-02-06T05:29:38.824Z,8.68
2023-02-06T05:32:08.322Z,10.98
2023-02-06T05:34:36.272Z,9.20
2023-02-06T05:37:04.210Z,9.15
2023-02-06T05:39:32.176Z,8.25
2023-02-06T05:42:00.169Z,9.30
2023-02-06T05:44:28.305Z,10.50
2023-02-06T05:46:56.447Z,10.93
2023-02-06T05:49:25.716Z,10.55
2023-02-06T05:51:53.603Z,9.10
2023-02-06T05:54:21.511Z,10.30
2023-02-06T05:56:49.425Z,9.82
2023-02-06T05:59:17.416Z,9.73
2023-02-06T06:01:46.379Z,8.70
2023-02-06T06:04:14.447Z,8.23
2023-02-06T06:06:43.766Z,9.60
2023-02-06T06:09:11.686Z,9.35
2023-02-06T06:11:39.755Z,10.55
2023-02-06T06:14:07.673Z,8.52
2023-02-06T06:16:35.966Z,10.00
2023-02-06T06:19:03.946Z,11.15
2023-02-06T06:21:31.921Z,9.98
2023-02-06T06:24:01.571Z,9.15
2023-02-06T06:26:29.665Z,8.38
2023-02-06T06:28:57.777Z,10.15
2023-02-06T06:31:25.738Z,9.30
2023-02-06T06:33:54.186Z,8.70
2023-02-06T06:36:22.325Z,9.23
2023-02-06T06:38:50.326Z,8.05
2023-02-06T06:41:19.766Z,8.30
2023-02-06T06:43:49.067Z,7.93
2023-02-06T06:46:18.882Z,8.45
2023-02-06T06:48:46.821Z,8.80
2023-02-06T06:51:14.846Z,9.13
2023-02-06T06:53:42.844Z,8.00
2023-02-06T06:56:14.316Z,10.88
2023-02-06T06:58:43.670Z,9.95
2023-02-06T07:01:11.652Z,10.98
2023-02-06T07:03:39.761Z,10.40
2023-02-06T07:06:07.891Z,10.18
2023-02-06T07:08:41.629Z,10.40
2023-02-06T07:11:09.819Z,9.43
2023-02-06T07:13:37.821Z,10.77
2023-02-06T07:16:07.457Z,10.90
2023-02-06T07:18:35.405Z,11.13
2023-02-06T07:21:04.115Z,10.50
2023-02-06T07:23:32.103Z,10.05
2023-02-06T07:26:02.315Z,10.23
2023-02-06T07:28:30.774Z,9.20
2023-02-06T07:31:01.301Z,9.43
2023-02-06T07:33:30.954Z,8.97
2023-02-06T07:35:59.289Z,8.97
2023-02-06T07:38:27.322Z,9.63
2023-02-06T07:40:55.324Z,7.80
2023-02-06T07:43:23.624Z,9.25
2023-02-06T07:45:51.559Z,8.50
2023-02-06T07:48:19.528Z,8.33
2023-02-06T07:50:48.775Z,7.83
2023-02-06T07:53:16.729Z,7.97
2023-02-06T07:55:44.595Z,8.20
2023-02-06T07:58:12.724Z,7.40
2023-02-06T08:00:41.164Z,8.10
2023-02-06T08:03:10.492Z,9.30
2023-02-06T08:05:39.654Z,9.10
2023-02-06T08:08:09.724Z,8.37
2023-02-06T08:10:39.724Z,8.37
2023-02-06T08:13:07.881Z,7.73
2023-02-06T08:15:36.108Z,8.13
2023-02-06T08:18:04.377Z,8.77
2023-02-06T08:20:32.336Z,7.77
2023-02-06T08:23:00.453Z,9.23
2023-02-06T08:25:29.762Z,8.50
2023-02-06T08:27:58.104Z,9.27
2023-02-06T08:30:26.436Z,8.33
2023-02-06T08:32:54.478Z,7.63
2023-02-06T08:35:22.476Z,10.63
2023-02-06T08:37:50.494Z,9.27
2023-02-06T08:40:18.941Z,8.33
2023-02-06T08:42:52.213Z,8.60
2023-02-06T08:45:20.240Z,9.00
2023-02-06T08:47:48.189Z,10.77
2023-02-06T08:50:16.805Z,9.10
2023-02-06T08:52:44.800Z,9.90
2023-02-06T08:55:12.739Z,9.77
2023-02-06T08:57:40.726Z,9.87
2023-02-06T09:00:11.507Z,11.50
2023-02-06T09:02:39.468Z,10.10
2023-02-06T09:05:07.605Z,10.30
2023-02-06T09:07:35.550Z,10.83
2023-02-06T09:10:03.465Z,10.20
2023-02-06T09:12:31.377Z,10.37
2023-02-06T09:14:59.687Z,9.77
2023-02-06T09:17:31.491Z,8.57
2023-02-06T09:19:59.440Z,8.10
2023-02-06T09:22:27.679Z,7.87
2023-02-06T09:24:55.745Z,7.37
2023-02-06T09:27:23.721Z,9.27
2023-02-06T09:29:51.603Z,8.73
2023-02-06T09:32:19.543Z,10.20
2023-02-06T09:34:49.320Z,9.23
2023-02-06T09:37:17.333Z,8.20
2023-02-06T09:39:45.315Z,9.40
2023-02-06T09:42:18.664Z,9.00
2023-02-06T09:44:51.736Z,8.60
2023-02-06T09:47:26.344Z,10.80
2023-02-06T09:49:59.399Z,9.60
2023-02-06T09:52:52.257Z,8.60
2023-02-06T09:55:28.496Z,9.23
2023-02-06T09:58:03.553Z,8.63
2023-02-06T10:00:38.643Z,9.37
2023-02-06T10:03:30.975Z,9.60
2023-02-06T10:06:12.175Z,9.53
2023-02-06T10:08:43.207Z,8.40
2023-02-06T10:11:16.947Z,12.40
2023-02-06T10:13:50.133Z,8.97
2023-02-06T10:16:33.496Z,9.73
2023-02-06T10:19:06.278Z,10.77
2023-02-06T10:21:41.287Z,12.33
2023-02-06T10:24:14.577Z,9.00
2023-02-06T10:26:42.710Z,9.07
2023-02-06T10:29:19.249Z,8.17
2023-02-06T10:32:00.572Z,8.30
2023-02-06T10:34:53.944Z,7.73
2023-02-06T10:37:37.545Z,8.60
2023-02-06T10:40:30.895Z,8.23
2023-02-06T10:43:04.206Z,8.83
2023-02-06T10:45:42.031Z,7.40
2023-02-06T10:48:26.256Z,8.13
2023-02-06T10:50:59.616Z,8.20
2023-02-06T10:53:33.015Z,9.77
2023-02-06T10:56:05.137Z,7.47
2023-02-06T10:58:38.533Z,9.93
2023-02-06T11:01:24.738Z,8.23
2023-02-06T11:04:00.054Z,8.60
2023-02-06T11:06:30.313Z,9.07
2023-02-06T11:08:59.724Z,9.30
2023-02-06T11:11:30.629Z,8.10
2023-02-06T11:14:06.481Z,7.93
2023-02-06T11:16:37.419Z,7.77
2023-02-06T11:19:16.828Z,9.17
2023-02-06T11:21:51.577Z,11.27
2023-02-06T11:24:23.519Z,8.33
2023-02-06T11:26:55.395Z,9.40
2023-02-06T11:29:26.788Z,7.90
2023-02-06T11:31:58.461Z,8.73
2023-02-06T11:34:30.036Z,8.80
2023-02-06T11:37:00.003Z,8.00
2023-02-06T11:39:32.481Z,10.30
2023-02-06T11:42:03.474Z,8.70
2023-02-06T11:44:38.128Z,8.47
2023-02-06T11:47:38.137Z,7.50
2023-02-06T11:50:23.895Z,8.77
2023-02-06T11:52:56.775Z,8.33
2023-02-06T11:55:29.101Z,8.27
2023-02-06T11:58:07.266Z,9.10
2023-02-06T12:00:38.097Z,8.83
2023-02-06T12:03:06.977Z,8.43
2023-02-06T12:05:40.385Z,9.43
2023-02-06T12:08:14.010Z,16.77
2023-02-06T12:10:52.374Z,7.53
2023-02-06T12:13:24.578Z,7.80
2023-02-06T12:15:55.087Z,9.03
2023-02-06T12:18:27.135Z,12.63
2023-02-06T12:20:59.063Z,7.90
2023-02-06T12:23:32.504Z,10.17
2023-02-06T12:26:06.052Z,8.57
2023-02-06T12:28:39.989Z,9.47
2023-02-06T12:31:13.903Z,8.10
2023-02-06T12:33:45.724Z,8.33
2023-02-06T12:36:17.248Z,9.67
2023-02-06T12:38:51.564Z,7.60
2023-02-06T12:41:44.040Z,7.80
2023-02-06T12:44:23.272Z,8.00
2023-02-06T12:46:58.556Z,7.20
2023-02-06T12:49:31.961Z,7.90
2023-02-06T12:52:10.374Z,7.73
2023-02-06T12:54:46.167Z,6.30
2023-02-06T12:57:20.844Z,6.73
2023-02-06T13:00:24.714Z,7.10
2023-02-06T13:03:15.968Z,6.50
2023-02-06T13:05:47.035Z,6.40
2023-02-06T13:08:19.255Z,7.17
2023-02-06T13:10:50.147Z,6.70
2023-02-06T13:13:32.446Z,6.80
2023-02-06T13:16:01.431Z,7.37
2023-02-06T13:19:02.779Z,7.60
2023-02-06T13:21:33.461Z,8.97
2023-02-06T13:24:16.387Z,8.60
2023-02-06T13:27:11.797Z,12.13
2023-02-06T13:29:44.319Z,7.60
2023-02-06T13:32:50.218Z,9.87
2023-02-06T13:35:28.276Z,6.93
2023-02-06T13:38:25.692Z,6.10
2023-02-06T13:41:31.016Z,7.40
2023-02-06T13:44:05.198Z,7.90
2023-02-06T13:47:08.481Z,8.07
2023-02-06T13:50:02.126Z,8.10
2023-02-06T13:52:39.894Z,8.27
2023-02-06T13:55:25.248Z,7.50
2023-02-06T13:58:13.204Z,6.90
2023-02-06T14:00:47.202Z,7.80
2023-02-06T14:03:23.340Z,8.80
2023-02-06T14:05:59.299Z,7.53
2023-02-06T14:08:40.529Z,6.83
2023-02-06T14:11:34.325Z,8.60
2023-02-06T14:14:31.634Z,6.70
2023-02-06T14:17:14.265Z,7.30
2023-02-06T14:19:50.560Z,7.33
2023-02-06T14:22:27.642Z,7.30
2023-02-06T14:25:10.187Z,6.77
2023-02-06T14:28:00.390Z,7.33
2023-02-06T14:30:38.765Z,7.90
2023-02-06T14:33:20.049Z,7.77
2023-02-06T14:36:07.760Z,8.83
2023-02-06T14:38:50.364Z,7.33
2023-02-06T14:41:18.859Z,7.40
2023-02-06T14:43:49.417Z,6.33
2023-02-06T14:46:19.564Z,8.70
2023-02-06T14:48:51.754Z,5.83
2023-02-06T14:51:26.528Z,7.43
2023-02-06T14:53:58.145Z,6.30
2023-02-06T14:56:29.163Z,6.40
2023-02-06T14:58:57.428Z,6.27
2023-02-06T15:01:27.953Z,7.67
2023-02-06T15:04:10.507Z,6.67
2023-02-06T15:06:41.506Z,5.93
2023-02-06T15:09:22.583Z,6.83
2023-02-06T15:11:52.514Z,6.03
2023-02-06T15:14:22.971Z,5.67
2023-02-06T15:16:52.261Z,5.33
2023-02-06T15:19:21.907Z,5.57
2023-02-06T15:21:53.666Z,7.57
2023-02-06T15:24:35.126Z,6.50
2023-02-06T15:27:11.594Z,5.80
2023-02-06T15:29:39.550Z,5.70
2023-02-06T15:32:18.022Z,5.80
2023-02-06T15:34:47.444Z,7.07
2023-02-06T15:37:29.928Z,8.37
2023-02-06T15:40:02.344Z,10.60
2023-02-06T15:42:30.567Z,13.57
2023-02-06T15:44:59.334Z,7.50
2023-02-06T15:47:27.386Z,6.40
2023-02-06T15:49:56.978Z,10.23
2023-02-06T15:52:39.429Z,12.03
2023-02-06T15:55:07.787Z,26.50
2023-02-06T15:57:43.813Z,25.57
2023-02-06T16:00:23.894Z,20.73
2023-02-06T16:02:54.291Z,25.57
2023-02-06T16:05:27.554Z,19.60
2023-02-06T16:07:57.317Z,9.20
2023-02-06T16:10:27.448Z,9.90
2023-02-06T16:12:57.437Z,11.40
2023-02-06T16:15:29.616Z,19.40
2023-02-06T16:17:59.913Z,25.40
2023-02-06T16:20:34.274Z,15.57
2023-02-06T16:23:25.354Z,31.60
2023-02-06T16:26:07.363Z,26.60
2023-02-06T16:28:42.652Z,22.87
2023-02-06T16:31:15.708Z,8.37
2023-02-06T16:33:45.676Z,8.40
2023-02-06T16:36:15.367Z,6.80
2023-02-06T16:38:51.183Z,8.00
2023-02-06T16:41:33.685Z,8.17
2023-02-06T16:44:02.706Z,6.87
2023-02-06T16:46:31.113Z,10.80
2023-02-06T16:49:00.599Z,22.87
2023-02-06T16:51:30.883Z,32.30
2023-02-06T16:54:00.276Z,12.17
2023-02-06T16:56:28.290Z,8.70
2023-02-06T16:58:57.744Z,9.60
2023-02-06T17:01:29.472Z,8.73
2023-02-06T17:03:57.550Z,7.73
2023-02-06T17:06:27.629Z,7.10
2023-02-06T17:09:03.334Z,7.70
2023-02-06T17:11:31.327Z,7.53
2023-02-06T17:13:59.542Z,8.97
2023-02-06T17:16:29.211Z,8.20
2023-02-06T17:18:57.539Z,8.50
2023-02-06T17:21:28.243Z,8.80
2023-02-06T17:23:56.163Z,7.60
2023-02-06T17:26:25.953Z,8.97
2023-02-06T17:28:53.973Z,11.50
2023-02-06T17:31:22.134Z,9.30
2023-02-06T17:33:50.474Z,12.37
2023-02-06T17:36:21.942Z,9.57
2023-02-06T17:38:50.009Z,10.33
2023-02-06T17:41:17.953Z,10.27
2023-02-06T17:43:47.270Z,9.30
2023-02-06T17:46:15.351Z,12.00
2023-02-06T17:48:44.485Z,18.97
2023-02-06T17:51:12.911Z,25.90
2023-02-06T17:53:41.276Z,9.37
2023-02-06T17:56:12.726Z,7.30
2023-02-06T17:58:41.442Z,7.90
2023-02-06T18:01:13.319Z,6.83
2023-02-06T18:03:41.458Z,9.80
2023-02-06T18:06:10.537Z,12.47
2023-02-06T18:08:39.065Z,12.77
2023-02-06T18:11:11.739Z,10.53
2023-02-06T18:13:40.152Z,11.50
2023-02-06T18:16:09.085Z,8.40
2023-02-06T18:18:38.513Z,7.97
2023-02-06T18:21:07.328Z,9.00
2023-02-06T18:23:35.702Z,9.10
2023-02-06T18:26:05.433Z,9.13
2023-02-06T18:28:35.364Z,12.57
2023-02-06T18:31:03.874Z,12.10
2023-02-06T18:33:33.920Z,12.57
2023-02-06T18:36:05.891Z,10.50
2023-02-06T18:38:34.145Z,10.10
2023-02-06T18:41:05.173Z,9.50
2023-02-06T18:43:34.805Z,8.90
2023-02-06T18:46:07.718Z,7.83
2023-02-06T18:48:36.364Z,7.57
2023-02-06T18:51:09.433Z,9.87
2023-02-06T18:53:37.420Z,7.80
2023-02-06T18:56:05.689Z,12.50
2023-02-06T18:58:33.591Z,12.23
2023-02-06T19:01:01.655Z,9.30
2023-02-06T19:03:29.631Z,10.67
2023-02-06T19:05:57.645Z,10.57
2023-02-06T19:08:26.966Z,10.60
2023-02-06T19:10:58.061Z,10.00
2023-02-06T19:13:26.029Z,11.43
2023-02-06T19:16:05.722Z,10.23
2023-02-06T19:18:38.839Z,10.10
2023-02-06T19:21:10.894Z,12.93
2023-02-06T19:23:40.547Z,9.70
2023-02-06T19:26:09.999Z,24.63
2023-02-06T19:28:39.227Z,20.67
2023-02-06T19:31:09.177Z,13.57
2023-02-06T19:33:40.278Z,14.33
2023-02-06T19:36:10.023Z,26.63
2023-02-06T19:38:38.289Z,11.63
2023-02-06T19:41:08.623Z,10.25
2023-02-06T19:43:37.418Z,11.30
2023-02-06T19:46:06.388Z,21.07
2023-02-06T19:48:34.491Z,21.60
2023-02-06T19:51:06.765Z,12.80
2023-02-06T19:53:35.392Z,13.53
2023-02-06T19:56:04.161Z,16.03
2023-02-06T19:58:33.522Z,13.30
2023-02-06T20:01:09.163Z,12.23
2023-02-06T20:03:37.490Z,15.27
2023-02-06T20:06:07.545Z,14.40
2023-02-06T20:08:35.464Z,15.07
2023-02-06T20:11:05.316Z,21.23
2023-02-06T20:13:35.218Z,20.17
2023-02-06T20:16:04.554Z,11.70
2023-02-06T20:18:33.828Z,12.90
2023-02-06T20:21:02.764Z,11.13
2023-02-06T20:23:31.398Z,13.57
2023-02-06T20:26:02.760Z,12.37
2023-02-06T20:28:31.132Z,12.30
2023-02-06T20:31:00.445Z,10.30
2023-02-06T20:33:28.734Z,11.32
2023-02-06T20:35:56.834Z,11.63
2023-02-06T20:38:25.343Z,11.10
2023-02-06T20:40:56.144Z,11.88
2023-02-06T20:43:24.099Z,12.70
2023-02-06T20:45:53.036Z,11.00
2023-02-06T20:48:22.637Z,15.63
2023-02-06T20:50:50.670Z,13.45
2023-02-06T20:53:18.563Z,12.07
2023-02-06T20:55:47.169Z,11.70
2023-02-06T20:58:15.112Z,11.77
2023-02-06T21:00:43.020Z,11.40
2023-02-06T21:03:11.097Z,10.07
2023-02-06T21:05:40.801Z,11.40
2023-02-06T21:08:09.398Z,11.43
2023-02-06T21:10:37.738Z,11.77
2023-02-06T21:13:05.846Z,12.55
2023-02-06T21:15:33.792Z,11.15
2023-02-06T21:18:01.850Z,10.73
2023-02-06T21:20:29.809Z,11.35
2023-02-06T21:22:59.135Z,12.68
2023-02-06T21:25:27.137Z,12.00
2023-02-06T21:27:55.380Z,12.35
2023-02-06T21:30:23.641Z,11.70
2023-02-06T21:32:51.577Z,15.05
2023-02-06T21:35:19.733Z,13.10
2023-02-06T21:37:47.724Z,11.18
2023-02-06T21:40:18.577Z,13.73
2023-02-06T21:42:46.472Z,14.82
2023-02-06T21:45:14.538Z,15.45
2023-02-06T21:47:42.457Z,18.02
2023-02-06T21:50:10.549Z,14.43
2023-02-06T21:52:39.164Z,11.73
2023-02-06T21:55:07.773Z,12.45
2023-02-06T21:57:37.073Z,12.20
2023-02-06T22:00:06.142Z,13.43
2023-02-06T22:02:34.093Z,11.20
2023-02-06T22:05:02.029Z,13.73
2023-02-06T22:07:30.033Z,12.32
2023-02-06T22:09:58.011Z,14.05
2023-02-06T22:12:26.001Z,13.98
2023-02-06T22:14:55.479Z,13.68
2023-02-06T22:17:23.553Z,13.50
2023-02-06T22:19:51.756Z,14.95
2023-02-06T22:22:19.667Z,15.30
2023-02-06T22:24:49.371Z,17.30
2023-02-06T22:27:17.560Z,14.38
2023-02-06T22:29:45.656Z,16.20
2023-02-06T22:32:14.939Z,17.27
2023-02-06T22:34:42.928Z,17.23
2023-02-06T22:37:10.953Z,12.68
2023-02-06T22:39:38.884Z,11.80
2023-02-06T22:42:06.985Z,11.32
2023-02-06T22:44:34.979Z,11.23
2023-02-06T22:47:03.312Z,11.40
2023-02-06T22:49:32.592Z,13.45
2023-02-06T22:52:00.564Z,12.23
2023-02-06T22:54:28.550Z,12.65
2023-02-06T22:56:56.520Z,13.20
2023-02-06T22:59:26.298Z,11.00
2023-02-06T23:01:55.835Z,12.82
2023-02-06T23:04:26.380Z,13.73
2023-02-06T23:06:55.753Z,12.63
2023-02-06T23:09:26.510Z,11.02
2023-02-06T23:11:58.259Z,11.90
2023-02-06T23:14:26.575Z,10.10
2023-02-06T23:16:54.554Z,11.70
2023-02-06T23:19:23.143Z,12.45
2023-02-06T23:21:52.122Z,16.27
2023-02-06T23:24:21.727Z,14.43
2023-02-06T23:26:51.054Z,15.85
2023-02-06T23:29:20.400Z,16.98
2023-02-06T23:31:49.126Z,15.25
2023-02-06T23:34:18.906Z,12.70
2023-02-06T23:36:47.822Z,13.13
2023-02-06T23:39:16.140Z,11.73
2023-02-06T23:41:45.484Z,12.68
2023-02-06T23:44:13.755Z,13.07
2023-02-06T23:46:42.939Z,11.40
2023-02-06T23:49:11.331Z,14.32
2023-02-06T23:51:39.610Z,13.45
2023-02-06T23:54:08.895Z,16.00
2023-02-06T23:56:38.114Z,14.80
2023-02-06T23:59:07.772Z,16.58
